createdAt,value
2023-03-27T00:02:12.284Z,7.25
2023-03-27T00:07:05.798Z,10.18
2023-03-27T00:11:59.527Z,7.90
2023-03-27T00:16:53.055Z,6.65
2023-03-27T00:21:46.283Z,6.00
2023-03-27T00:26:40.991Z,6.07
2023-03-27T00:31:38.991Z,6.50
2023-03-27T00:36:31.802Z,6.18
2023-03-27T00:41:25.219Z,5.85
2023-03-27T00:46:31.776Z,5.07
2023-03-27T00:51:26.203Z,5.35
2023-03-27T00:56:19.188Z,5.18
2023-03-27T01:01:14.937Z,5.75
2023-03-27T01:06:10.069Z,4.63
2023-03-27T01:11:42.289Z,5.43
2023-03-27T01:17:10.975Z,6.30
2023-03-27T01:22:25.125Z,5.33
2023-03-27T01:27:26.804Z,5.85
2023-03-27T01:32:40.966Z,5.43
2023-03-27T01:37:54.137Z,4.68
2023-03-27T01:42:50.973Z,5.18
2023-03-27T01:47:52.263Z,5.78
2023-03-27T01:52:51.147Z,5.55
2023-03-27T01:57:50.290Z,5.38
2023-03-27T02:03:10.291Z,6.00
2023-03-27T02:08:22.873Z,4.78
2023-03-27T02:13:24.980Z,3.58
2023-03-27T02:18:25.065Z,4.60
2023-03-27T02:23:19.194Z,4.72
2023-03-27T02:28:42.774Z,4.53
2023-03-27T02:33:43.151Z,4.60
2023-03-27T02:38:45.829Z,4.38
2023-03-27T02:44:18.920Z,3.92
2023-03-27T02:49:30.736Z,2.97
2023-03-27T02:54:28.023Z,3.45
2023-03-27T02:59:25.906Z,3.60
2023-03-27T03:04:31.108Z,3.15
2023-03-27T03:09:24.944Z,3.88
2023-03-27T03:14:31.458Z,4.57
2023-03-27T03:19:27.687Z,3.67
2023-03-27T03:24:22.773Z,3.15
2023-03-27T03:29:16.308Z,3.97
2023-03-27T03:34:19.267Z,3.78
2023-03-27T03:39:15.954Z,2.75
2023-03-27T03:44:13.508Z,2.95
2023-03-27T03:49:07.620Z,2.97
2023-03-27T03:54:02.030Z,3.25
2023-03-27T03:58:55.107Z,4.68
2023-03-27T04:03:49.914Z,3.65
2023-03-27T04:08:44.049Z,5.68
2023-03-27T04:13:55.169Z,5.57
2023-03-27T04:19:03.383Z,5.68
2023-03-27T04:24:02.978Z,6.75
2023-03-27T04:29:12.221Z,6.50
2023-03-27T04:34:25.174Z,8.85
2023-03-27T04:39:47.252Z,8.30
2023-03-27T04:44:41.132Z,7.57
2023-03-27T04:49:40.743Z,7.00
2023-03-27T04:54:44.242Z,6.70
2023-03-27T04:59:37.172Z,7.03
2023-03-27T05:04:49.365Z,6.97
2023-03-27T05:09:46.426Z,7.78
2023-03-27T05:14:42.461Z,5.78
2023-03-27T05:19:49.839Z,6.55
2023-03-27T05:24:43.543Z,6.72
2023-03-27T05:29:46.763Z,6.07
2023-03-27T05:34:43.215Z,5.47
2023-03-27T05:39:40.054Z,5.60
2023-03-27T05:44:36.354Z,6.07
2023-03-27T05:49:34.002Z,7.20
2023-03-27T05:54:35.244Z,10.75
2023-03-27T05:59:34.888Z,14.73
2023-03-27T06:04:43.255Z,14.63
2023-03-27T06:09:40.447Z,13.07
2023-03-27T06:14:53.012Z,12.93
2023-03-27T06:20:11.385Z,12.20
2023-03-27T06:25:07.304Z,11.05
2023-03-27T06:30:00.998Z,11.30
2023-03-27T06:34:55.823Z,12.20
2023-03-27T06:40:28.717Z,11.13
2023-03-27T06:45:33.296Z,11.60
2023-03-27T06:50:42.438Z,11.35
2023-03-27T06:55:40.718Z,10.67
2023-03-27T07:00:35.791Z,11.40
2023-03-27T07:05:42.299Z,11.95
2023-03-27T07:10:35.911Z,11.90
2023-03-27T07:15:28.311Z,11.93
2023-03-27T07:20:21.574Z,8.77
2023-03-27T07:25:15.111Z,9.38
2023-03-27T07:30:13.527Z,10.13
2023-03-27T07:35:09.444Z,8.63
2023-03-27T07:40:29.386Z,8.07
2023-03-27T07:46:06.748Z,8.00
2023-03-27T07:51:13.453Z,6.95
2023-03-27T07:56:10.391Z,6.03
2023-03-27T08:01:05.017Z,4.30
2023-03-27T08:06:00.649Z,4.03
2023-03-27T08:11:01.292Z,7.37
2023-03-27T08:16:31.562Z,3.03
2023-03-27T08:21:27.041Z,2.55
2023-03-27T08:26:21.652Z,2.30
2023-03-27T08:31:24.776Z,1.40
2023-03-27T08:36:23.120Z,1.80
2023-03-27T08:41:39.362Z,1.48
2023-03-27T08:46:51.608Z,1.85
2023-03-27T08:51:58.304Z,0.60
2023-03-27T08:56:51.805Z,0.40
2023-03-27T09:02:09.950Z,0.50
2023-03-27T09:07:25.037Z,0.50
2023-03-27T09:12:40.977Z,0.50
2023-03-27T09:17:39.642Z,0.47
2023-03-27T09:22:44.781Z,0.40
2023-03-27T09:27:44.368Z,0.60
2023-03-27T09:33:06.442Z,0.30
2023-03-27T09:38:07.259Z,0.35
2023-03-27T09:43:09.226Z,0.45
2023-03-27T09:48:08.142Z,1.00
2023-03-27T09:53:19.827Z,0.77
2023-03-27T09:58:33.668Z,0.60
2023-03-27T10:03:28.851Z,0.35
2023-03-27T10:08:45.158Z,0.30
2023-03-27T10:14:07.863Z,0.70
2023-03-27T10:19:01.636Z,0.40
2023-03-27T10:24:07.112Z,0.30
2023-03-27T10:29:32.491Z,0.30
2023-03-27T10:34:33.266Z,0.40
2023-03-27T10:39:53.413Z,0.40
2023-03-27T10:44:59.437Z,0.40
2023-03-27T10:50:19.840Z,0.65
2023-03-27T10:55:14.656Z,0.20
2023-03-27T11:00:19.104Z,0.43
2023-03-27T11:05:35.236Z,0.38
2023-03-27T11:10:41.318Z,0.30
2023-03-27T11:15:42.286Z,0.47
2023-03-27T11:21:16.863Z,0.40
2023-03-27T11:26:26.087Z,0.50
2023-03-27T11:31:46.892Z,0.50
2023-03-27T11:36:53.384Z,0.50
2023-03-27T11:41:59.125Z,0.73
2023-03-27T11:46:59.200Z,0.50
2023-03-27T11:52:07.203Z,0.50
2023-03-27T11:57:05.596Z,0.30
2023-03-27T12:02:45.549Z,0.38
2023-03-27T12:08:25.431Z,0.40
2023-03-27T12:14:01.076Z,0.38
2023-03-27T12:19:17.278Z,0.40
2023-03-27T12:24:57.240Z,0.30
2023-03-27T12:30:24.357Z,0.20
2023-03-27T12:35:22.177Z,0.30
2023-03-27T12:40:27.825Z,0.22
2023-03-27T12:45:28.299Z,0.20
2023-03-27T12:50:26.920Z,0.30
2023-03-27T12:55:21.314Z,0.30
2023-03-27T13:00:26.047Z,0.20
2023-03-27T13:05:28.047Z,0.20
2023-03-27T13:11:00.280Z,0.20
2023-03-27T13:16:12.886Z,0.40
2023-03-27T13:21:36.367Z,0.80
2023-03-27T13:27:03.034Z,0.20
2023-03-27T13:32:45.014Z,0.30
2023-03-27T13:37:53.586Z,0.32
2023-03-27T13:43:21.554Z,0.30
2023-03-27T13:48:42.947Z,0.30
2023-03-27T13:53:54.508Z,0.20
2023-03-27T13:59:09.286Z,0.40
2023-03-27T14:04:16.165Z,0.30
2023-03-27T14:09:56.938Z,0.22
2023-03-27T14:15:35.957Z,0.55
2023-03-27T14:20:54.974Z,0.40
2023-03-27T14:26:22.390Z,0.25
2023-03-27T14:31:20.768Z,0.20
2023-03-27T14:41:52.683Z,0.38
2023-03-27T14:46:49.831Z,0.50
2023-03-27T14:51:42.956Z,0.40
2023-03-27T14:56:49.013Z,0.50
2023-03-27T15:01:46.750Z,0.30
2023-03-27T15:06:41.773Z,0.47
2023-03-27T15:11:39.075Z,0.43
2023-03-27T15:16:39.429Z,0.40
2023-03-27T15:21:50.811Z,0.40
2023-03-27T15:26:44.882Z,0.35
2023-03-27T15:31:39.187Z,0.40
2023-03-27T15:36:36.568Z,0.30
2023-03-27T15:41:32.670Z,0.32
2023-03-27T15:46:26.864Z,0.38
2023-03-27T15:51:19.657Z,0.30
2023-03-27T15:56:28.006Z,0.40
2023-03-27T16:06:50.663Z,0.50
2023-03-27T16:11:49.197Z,0.40
2023-03-27T16:21:37.783Z,1.80
2023-03-27T16:26:32.613Z,0.63
2023-03-27T16:31:25.741Z,0.30
2023-03-27T16:36:30.690Z,0.40
2023-03-27T16:41:24.968Z,0.52
2023-03-27T16:46:40.070Z,0.52
2023-03-27T16:51:33.227Z,0.68
2023-03-27T16:56:27.329Z,0.60
2023-03-27T17:01:59.618Z,0.60
2023-03-27T17:07:12.456Z,0.43
2023-03-27T17:12:23.338Z,0.60
2023-03-27T17:17:16.297Z,0.60
2023-03-27T17:22:09.351Z,0.45
2023-03-27T17:27:02.706Z,0.50
2023-03-27T17:32:01.131Z,0.60
2023-03-27T17:36:55.633Z,0.80
2023-03-27T17:41:49.902Z,0.70
2023-03-27T17:46:43.922Z,0.60
2023-03-27T17:51:37.848Z,0.80
2023-03-27T17:56:30.644Z,0.85
2023-03-27T18:01:25.948Z,0.77
2023-03-27T18:06:20.393Z,0.98
2023-03-27T18:11:15.589Z,1.10
2023-03-27T18:16:11.406Z,1.02
2023-03-27T18:21:04.484Z,1.55
2023-03-27T18:26:00.917Z,0.80
2023-03-27T18:31:26.538Z,0.80
2023-03-27T18:36:25.959Z,1.00
2023-03-27T18:41:21.170Z,1.25
2023-03-27T18:46:17.011Z,1.00
2023-03-27T18:51:10.732Z,1.20
2023-03-27T18:56:05.061Z,1.10
2023-03-27T19:00:57.510Z,1.25
2023-03-27T19:05:53.111Z,1.00
2023-03-27T19:10:46.746Z,1.02
2023-03-27T19:15:44.188Z,1.20
2023-03-27T19:20:57.417Z,0.90
2023-03-27T19:26:20.177Z,1.20
2023-03-27T19:31:14.517Z,0.90
2023-03-27T19:36:10.077Z,0.80
2023-03-27T19:41:05.052Z,1.10
2023-03-27T19:46:14.383Z,0.80
2023-03-27T19:51:08.558Z,1.45
2023-03-27T19:56:09.327Z,0.90
2023-03-27T20:01:05.602Z,1.27
2023-03-27T20:06:06.862Z,1.20
2023-03-27T20:11:02.557Z,0.90
2023-03-27T20:15:57.117Z,1.02
2023-03-27T20:20:55.766Z,1.38
2023-03-27T20:25:52.560Z,1.20
2023-03-27T20:30:46.066Z,1.20
2023-03-27T20:35:42.342Z,1.42
2023-03-27T20:40:52.742Z,1.27
2023-03-27T20:45:53.807Z,1.23
2023-03-27T20:50:55.541Z,1.27
2023-03-27T20:55:59.242Z,1.38
2023-03-27T21:00:54.191Z,1.20
2023-03-27T21:05:47.562Z,1.20
2023-03-27T21:10:41.183Z,1.20
2023-03-27T21:15:34.869Z,1.50
2023-03-27T21:20:28.898Z,1.50
2023-03-27T21:25:23.475Z,1.30
2023-03-27T21:30:24.906Z,1.60
2023-03-27T21:35:41.375Z,1.08
2023-03-27T21:40:35.032Z,1.00
2023-03-27T21:45:29.513Z,1.20
2023-03-27T21:50:23.672Z,1.20
2023-03-27T21:55:19.701Z,1.20
2023-03-27T22:00:14.730Z,0.90
2023-03-27T22:05:10.442Z,1.20
2023-03-27T22:10:06.416Z,1.30
2023-03-27T22:14:59.838Z,1.48
2023-03-27T22:19:54.924Z,1.52
2023-03-27T22:24:48.271Z,1.08
2023-03-27T22:29:42.052Z,1.15
2023-03-27T22:34:35.940Z,1.10
2023-03-27T22:39:28.811Z,1.25
2023-03-27T22:44:22.507Z,1.20
2023-03-27T22:49:16.977Z,1.20
2023-03-27T22:54:09.656Z,1.30
2023-03-27T22:59:03.736Z,1.20
2023-03-27T23:03:57.744Z,1.25
2023-03-27T23:08:52.196Z,1.33
2023-03-27T23:13:45.826Z,1.20
2023-03-27T23:18:40.266Z,1.30
2023-03-27T23:23:36.159Z,1.85
2023-03-27T23:28:33.387Z,1.38
2023-03-27T23:33:26.598Z,1.75
2023-03-27T23:38:20.933Z,1.92
2023-03-27T23:43:14.984Z,1.33
2023-03-27T23:48:09.167Z,1.40
2023-03-27T23:53:03.473Z,1.70
2023-03-27T23:57:56.968Z,1.40
